createdAt,value
2018-12-06T00:00:46.157Z,10.80
2018-12-06T00:03:14.534Z,10.80
2018-12-06T00:05:42.925Z,10.80
2018-12-06T00:08:18.327Z,10.80
2018-12-06T00:10:47.344Z,10.80
2018-12-06T00:13:15.743Z,10.70
2018-12-06T00:15:44.181Z,10.70
2018-12-06T00:18:12.560Z,10.70
2018-12-06T00:20:40.957Z,10.70
2018-12-06T00:23:09.360Z,10.60
2018-12-06T00:25:37.791Z,10.60
2018-12-06T00:28:06.172Z,10.60
2018-12-06T00:30:37.809Z,10.70
2018-12-06T00:33:06.453Z,10.70
2018-12-06T00:35:34.854Z,10.60
2018-12-06T00:38:03.244Z,10.60
2018-12-06T00:40:31.617Z,10.60
2018-12-06T00:43:00.019Z,10.60
2018-12-06T00:45:28.427Z,10.70
2018-12-06T00:47:56.803Z,10.70
2018-12-06T00:50:25.181Z,10.70
2018-12-06T00:52:53.587Z,10.70
2018-12-06T00:55:21.955Z,10.60
2018-12-06T00:57:50.829Z,10.60
2018-12-06T01:00:19.349Z,10.60
2018-12-06T01:02:47.730Z,10.50
2018-12-06T01:05:16.308Z,10.50
2018-12-06T01:07:44.717Z,10.50
2018-12-06T01:10:13.666Z,10.60
2018-12-06T01:12:42.031Z,10.50
2018-12-06T01:15:10.445Z,10.50
2018-12-06T01:17:38.847Z,10.50
2018-12-06T01:20:07.986Z,10.50
2018-12-06T01:22:36.405Z,10.50
2018-12-06T01:25:05.914Z,10.60
2018-12-06T01:27:34.354Z,10.60
2018-12-06T01:30:02.771Z,10.60
2018-12-06T01:32:31.145Z,10.60
2018-12-06T01:34:59.636Z,10.60
2018-12-06T01:37:28.037Z,10.70
2018-12-06T01:39:56.688Z,10.70
2018-12-06T01:42:25.067Z,10.70
2018-12-06T01:44:53.798Z,10.70
2018-12-06T01:47:22.476Z,10.80
2018-12-06T01:49:50.860Z,10.80
2018-12-06T01:52:19.252Z,10.80
2018-12-06T01:54:47.628Z,10.80
2018-12-06T01:57:16.000Z,10.80
2018-12-06T01:59:44.407Z,10.80
2018-12-06T02:02:12.759Z,10.80
2018-12-06T02:04:41.133Z,10.80
2018-12-06T02:07:09.547Z,10.80
2018-12-06T02:09:38.039Z,10.80
2018-12-06T02:12:06.518Z,10.90
2018-12-06T02:14:34.912Z,10.90
2018-12-06T02:17:03.402Z,10.90
2018-12-06T02:19:31.789Z,10.90
2018-12-06T02:22:00.303Z,11.00
2018-12-06T02:24:28.783Z,11.00
2018-12-06T02:26:57.456Z,11.00
2018-12-06T02:29:30.252Z,11.10
2018-12-06T02:31:59.060Z,11.10
2018-12-06T02:34:27.492Z,11.10
2018-12-06T02:36:55.880Z,11.10
2018-12-06T02:39:24.244Z,11.10
2018-12-06T02:41:52.615Z,11.10
2018-12-06T02:44:21.055Z,11.10
2018-12-06T02:46:49.421Z,11.10
2018-12-06T02:49:54.958Z,11.10
2018-12-06T02:52:23.656Z,11.20
2018-12-06T02:54:52.022Z,11.20
2018-12-06T02:57:20.425Z,11.20
2018-12-06T02:59:48.814Z,11.20
2018-12-06T03:02:17.175Z,11.20
2018-12-06T03:04:45.573Z,11.30
2018-12-06T03:07:14.230Z,11.20
2018-12-06T03:09:42.725Z,11.30
2018-12-06T03:12:11.140Z,11.30
2018-12-06T03:14:40.626Z,11.30
2018-12-06T03:17:09.271Z,11.30
2018-12-06T03:19:37.986Z,11.30
2018-12-06T03:22:06.354Z,11.20
2018-12-06T03:24:34.736Z,11.20
2018-12-06T03:27:03.139Z,11.20
2018-12-06T03:29:31.553Z,11.20
2018-12-06T03:32:00.174Z,11.10
2018-12-06T03:34:28.873Z,11.10
2018-12-06T03:36:57.249Z,11.10
2018-12-06T03:39:25.691Z,11.00
2018-12-06T03:41:54.145Z,11.00
2018-12-06T03:44:22.513Z,11.00
2018-12-06T03:46:51.131Z,11.00
2018-12-06T03:49:19.795Z,11.00
2018-12-06T03:51:48.168Z,11.00
2018-12-06T03:54:16.559Z,11.00
2018-12-06T03:56:44.964Z,11.00
2018-12-06T03:59:13.340Z,11.00
2018-12-06T04:01:41.711Z,11.00
2018-12-06T04:04:10.094Z,11.10
2018-12-06T04:06:38.472Z,11.00
2018-12-06T04:09:07.447Z,11.00
2018-12-06T04:11:35.841Z,11.00
2018-12-06T04:14:04.436Z,11.10
2018-12-06T04:16:32.846Z,11.10
2018-12-06T04:19:01.265Z,11.10
2018-12-06T04:21:29.652Z,11.00
2018-12-06T04:23:58.019Z,11.10
2018-12-06T04:26:26.432Z,11.10
2018-12-06T04:28:54.811Z,11.10
2018-12-06T04:31:23.315Z,11.10
2018-12-06T04:33:51.738Z,11.00
2018-12-06T04:36:20.158Z,11.10
2018-12-06T04:38:48.544Z,11.10
2018-12-06T04:41:17.162Z,11.10
2018-12-06T04:43:45.541Z,11.10
2018-12-06T04:46:14.002Z,11.10
2018-12-06T04:48:42.402Z,11.10
2018-12-06T04:51:10.847Z,11.10
2018-12-06T04:53:39.234Z,11.10
2018-12-06T04:56:07.666Z,11.20
2018-12-06T04:58:36.043Z,11.20
2018-12-06T05:01:04.582Z,11.30
2018-12-06T05:03:32.997Z,11.30
2018-12-06T05:06:01.388Z,11.30
2018-12-06T05:08:29.754Z,11.30
2018-12-06T05:10:58.172Z,11.30
2018-12-06T05:13:26.547Z,11.30
2018-12-06T05:15:55.206Z,11.40
2018-12-06T05:18:23.725Z,11.40
2018-12-06T05:20:52.098Z,11.30
2018-12-06T05:23:20.614Z,11.40
2018-12-06T05:25:49.010Z,11.40
2018-12-06T05:28:17.388Z,11.40
2018-12-06T05:30:45.760Z,11.40
2018-12-06T05:33:14.191Z,11.40
2018-12-06T05:35:42.573Z,11.40
2018-12-06T05:38:11.251Z,11.40
2018-12-06T05:40:39.652Z,11.40
2018-12-06T05:43:08.032Z,11.40
2018-12-06T05:45:36.661Z,11.40
2018-12-06T05:48:05.057Z,11.50
2018-12-06T05:50:33.713Z,11.50
2018-12-06T05:53:02.101Z,11.50
2018-12-06T05:55:30.508Z,11.50
2018-12-06T05:57:58.889Z,11.60
2018-12-06T06:00:27.302Z,11.60
2018-12-06T06:02:55.712Z,11.60
2018-12-06T06:05:24.091Z,11.60
2018-12-06T06:07:52.478Z,11.60
2018-12-06T06:10:20.896Z,11.60
2018-12-06T06:12:49.322Z,11.70
2018-12-06T06:15:17.975Z,11.60
2018-12-06T06:17:46.407Z,11.70
2018-12-06T06:20:14.815Z,11.70
2018-12-06T06:22:43.243Z,11.70
2018-12-06T06:25:11.686Z,11.70
2018-12-06T06:27:40.284Z,11.70
2018-12-06T06:30:09.232Z,11.70
2018-12-06T06:32:37.676Z,11.70
2018-12-06T06:35:06.521Z,11.70
2018-12-06T06:37:34.914Z,11.70
2018-12-06T06:40:03.839Z,11.70
2018-12-06T06:42:32.224Z,11.80
2018-12-06T06:45:01.641Z,11.80
2018-12-06T06:47:30.141Z,11.80
2018-12-06T06:49:58.524Z,11.80
2018-12-06T06:52:27.224Z,11.80
2018-12-06T06:54:55.924Z,11.80
2018-12-06T06:57:24.300Z,11.80
2018-12-06T06:59:52.672Z,11.80
2018-12-06T07:02:21.089Z,11.80
2018-12-06T07:04:49.457Z,11.90
2018-12-06T07:07:17.832Z,11.80
2018-12-06T07:09:46.259Z,11.90
2018-12-06T07:12:14.892Z,11.90
2018-12-06T07:14:43.262Z,11.90
2018-12-06T07:17:11.970Z,11.90
2018-12-06T07:19:40.354Z,11.90
2018-12-06T07:22:08.737Z,11.90
2018-12-06T07:24:37.152Z,11.90
2018-12-06T07:27:05.627Z,11.90
2018-12-06T07:29:34.018Z,11.90
2018-12-06T07:32:02.424Z,11.90
2018-12-06T07:34:31.260Z,11.90
2018-12-06T07:36:59.645Z,11.90
2018-12-06T07:39:28.045Z,11.80
2018-12-06T07:41:56.420Z,11.80
2018-12-06T07:44:25.341Z,11.80
2018-12-06T07:46:53.761Z,11.80
2018-12-06T07:49:22.136Z,11.80
2018-12-06T07:51:50.564Z,11.80
2018-12-06T07:54:18.984Z,11.80
2018-12-06T07:56:47.383Z,11.80
2018-12-06T07:59:15.956Z,11.80
2018-12-06T08:01:44.676Z,11.80
2018-12-06T08:04:13.092Z,11.80
2018-12-06T08:06:41.491Z,11.80
2018-12-06T08:09:10.493Z,11.80
2018-12-06T08:11:38.878Z,11.80
2018-12-06T08:14:07.768Z,11.80
2018-12-06T08:16:36.174Z,11.90
2018-12-06T08:19:04.845Z,11.90
2018-12-06T08:21:33.511Z,11.90
2018-12-06T08:24:01.897Z,11.90
2018-12-06T08:26:30.291Z,11.90
2018-12-06T08:28:58.676Z,11.90
2018-12-06T08:31:27.388Z,12.00
2018-12-06T08:33:55.776Z,12.00
2018-12-06T08:36:24.480Z,12.00
2018-12-06T08:38:53.122Z,12.10
2018-12-06T08:41:21.492Z,12.10
2018-12-06T08:43:50.107Z,12.20
2018-12-06T08:46:18.519Z,12.20
2018-12-06T08:48:46.913Z,12.20
2018-12-06T08:51:15.319Z,12.20
2018-12-06T08:53:43.723Z,12.20
2018-12-06T08:56:12.111Z,12.20
2018-12-06T08:58:40.494Z,12.20
2018-12-06T09:01:09.104Z,12.30
2018-12-06T09:03:37.801Z,12.30
2018-12-06T09:06:06.196Z,12.20
2018-12-06T09:08:34.604Z,12.20
2018-12-06T09:11:02.997Z,12.30
2018-12-06T09:13:31.399Z,12.30
2018-12-06T09:15:59.792Z,12.40
2018-12-06T09:18:28.171Z,12.40
2018-12-06T09:20:56.538Z,12.40
2018-12-06T09:23:24.954Z,12.40
2018-12-06T09:25:53.365Z,12.50
2018-12-06T09:28:21.733Z,12.50
2018-12-06T09:30:50.259Z,12.60
2018-12-06T09:33:18.629Z,12.50
2018-12-06T09:35:47.029Z,12.60
2018-12-06T09:38:15.748Z,12.60
2018-12-06T09:40:44.579Z,12.60
2018-12-06T09:43:13.252Z,12.60
2018-12-06T09:45:41.654Z,12.60
2018-12-06T09:48:10.056Z,12.70
2018-12-06T09:50:38.486Z,12.70
2018-12-06T09:53:07.263Z,12.70
2018-12-06T09:55:35.886Z,12.70
2018-12-06T09:58:04.403Z,12.70
2018-12-06T10:00:32.931Z,12.70
2018-12-06T10:03:01.312Z,12.70
2018-12-06T10:05:29.689Z,12.70
2018-12-06T10:07:58.183Z,12.70
2018-12-06T10:10:26.563Z,12.60
2018-12-06T10:12:54.927Z,12.60
2018-12-06T10:15:23.622Z,12.60
2018-12-06T10:17:51.999Z,12.60
2018-12-06T10:20:20.376Z,12.70
2018-12-06T10:22:48.767Z,12.70
2018-12-06T10:25:17.182Z,12.60
2018-12-06T10:27:45.578Z,12.60
2018-12-06T10:30:14.244Z,12.70
2018-12-06T10:32:42.639Z,12.80
2018-12-06T10:35:11.043Z,12.80
2018-12-06T10:37:39.474Z,12.90
2018-12-06T10:40:08.387Z,12.90
2018-12-06T10:42:36.946Z,12.90
2018-12-06T10:45:06.623Z,12.90
2018-12-06T10:47:35.019Z,12.80
2018-12-06T10:50:03.979Z,12.80
2018-12-06T10:52:32.379Z,12.90
2018-12-06T10:55:00.763Z,12.90
2018-12-06T10:57:29.154Z,12.90
2018-12-06T10:59:58.143Z,12.90
2018-12-06T11:02:30.707Z,12.90
2018-12-06T11:04:59.100Z,13.00
2018-12-06T11:07:27.509Z,13.00
2018-12-06T11:09:55.907Z,13.10
2018-12-06T11:12:24.299Z,13.10
2018-12-06T11:14:52.689Z,13.20
2018-12-06T11:17:21.071Z,13.20
2018-12-06T11:19:49.499Z,13.30
2018-12-06T11:22:17.878Z,13.30
2018-12-06T11:24:46.252Z,13.30
2018-12-06T11:27:14.698Z,13.30
2018-12-06T11:29:43.109Z,13.40
2018-12-06T11:32:11.485Z,13.50
2018-12-06T11:34:40.061Z,13.50
2018-12-06T11:37:08.532Z,13.50
2018-12-06T11:39:36.982Z,13.50
2018-12-06T11:42:05.414Z,13.50
2018-12-06T11:44:33.798Z,13.50
2018-12-06T11:47:02.194Z,13.60
2018-12-06T11:49:30.609Z,13.60
2018-12-06T11:51:59.078Z,13.60
2018-12-06T11:54:27.464Z,13.60
2018-12-06T11:56:56.132Z,13.60
2018-12-06T11:59:24.529Z,13.60
2018-12-06T12:01:53.465Z,13.60
2018-12-06T12:04:21.880Z,13.60
2018-12-06T12:06:50.252Z,13.70
2018-12-06T12:09:18.645Z,13.70
2018-12-06T12:11:47.056Z,13.70
2018-12-06T12:14:15.456Z,13.70
2018-12-06T12:16:44.677Z,13.70
2018-12-06T12:19:13.071Z,13.70
2018-12-06T12:21:41.430Z,13.70
2018-12-06T12:24:09.916Z,13.70
2018-12-06T12:26:38.571Z,13.70
2018-12-06T12:29:07.189Z,13.70
2018-12-06T12:31:35.571Z,13.70
2018-12-06T12:34:04.092Z,13.80
2018-12-06T12:36:32.480Z,13.80
2018-12-06T12:39:00.860Z,13.80
2018-12-06T12:41:29.332Z,13.80
2018-12-06T12:43:57.719Z,13.80
2018-12-06T12:46:30.337Z,13.80
2018-12-06T12:48:58.798Z,13.80
2018-12-06T12:51:27.187Z,13.80
2018-12-06T12:53:55.922Z,13.80
2018-12-06T12:56:24.612Z,13.80
2018-12-06T12:58:53.279Z,13.70
2018-12-06T13:01:21.668Z,13.70
2018-12-06T13:03:50.084Z,13.70
2018-12-06T13:06:18.486Z,13.70
2018-12-06T13:08:46.882Z,13.70
2018-12-06T13:11:15.443Z,13.70
2018-12-06T13:13:43.830Z,13.60
2018-12-06T13:16:12.371Z,13.60
2018-12-06T13:18:40.933Z,13.70
2018-12-06T13:21:09.318Z,13.70
2018-12-06T13:23:37.738Z,13.70
2018-12-06T13:26:06.130Z,13.70
2018-12-06T13:28:34.517Z,13.70
2018-12-06T13:31:03.174Z,13.70
2018-12-06T13:33:31.627Z,13.60
2018-12-06T13:36:00.004Z,13.60
2018-12-06T13:38:28.888Z,13.60
2018-12-06T13:40:57.528Z,13.50
2018-12-06T13:43:26.249Z,13.50
2018-12-06T13:45:55.016Z,13.50
2018-12-06T13:48:23.643Z,13.50
2018-12-06T13:50:52.020Z,13.40
2018-12-06T13:53:20.658Z,13.40
2018-12-06T13:55:49.057Z,13.50
2018-12-06T13:58:17.451Z,13.50
2018-12-06T14:00:46.147Z,13.50
2018-12-06T14:03:14.872Z,13.40
2018-12-06T14:05:43.518Z,13.50
2018-12-06T14:08:11.921Z,13.40
2018-12-06T14:10:40.312Z,13.40
2018-12-06T14:13:08.705Z,13.40
2018-12-06T14:15:37.090Z,13.40
2018-12-06T14:18:05.712Z,13.30
2018-12-06T14:20:34.086Z,13.30
2018-12-06T14:23:02.542Z,13.30
2018-12-06T14:25:31.154Z,13.20
2018-12-06T14:27:59.536Z,13.20
2018-12-06T14:30:27.960Z,13.20
2018-12-06T14:32:56.338Z,13.20
2018-12-06T14:35:24.771Z,13.30
2018-12-06T14:37:53.437Z,13.30
2018-12-06T14:40:22.017Z,13.30
2018-12-06T14:42:51.069Z,13.30
2018-12-06T14:45:19.453Z,13.40
2018-12-06T14:47:47.999Z,13.30
2018-12-06T14:50:16.361Z,13.30
2018-12-06T14:52:44.770Z,13.30
2018-12-06T14:55:13.153Z,13.30
2018-12-06T14:57:41.843Z,13.30
2018-12-06T15:00:10.754Z,13.30
2018-12-06T15:02:39.149Z,13.30
2018-12-06T15:05:09.290Z,13.30
2018-12-06T15:07:37.707Z,13.30
2018-12-06T15:10:07.931Z,13.30
2018-12-06T15:12:36.316Z,13.30
2018-12-06T15:15:05.392Z,13.20
2018-12-06T15:17:33.892Z,13.20
2018-12-06T15:20:02.322Z,13.30
2018-12-06T15:22:30.725Z,13.20
2018-12-06T15:24:59.749Z,13.20
2018-12-06T15:27:28.364Z,13.20
2018-12-06T15:29:57.115Z,13.20
2018-12-06T15:32:25.714Z,13.20
2018-12-06T15:34:54.712Z,13.20
2018-12-06T15:37:23.127Z,13.20
2018-12-06T15:39:51.560Z,13.20
2018-12-06T15:42:20.158Z,13.20
2018-12-06T15:44:48.599Z,13.20
2018-12-06T15:47:17.009Z,13.20
2018-12-06T15:49:45.426Z,13.20
2018-12-06T15:52:13.883Z,13.20
2018-12-06T15:54:42.412Z,13.10
2018-12-06T15:57:10.845Z,13.20
2018-12-06T15:59:39.242Z,13.10
2018-12-06T16:02:07.829Z,13.10
2018-12-06T16:04:36.205Z,13.20
2018-12-06T16:07:04.713Z,13.20
2018-12-06T16:09:33.135Z,13.10
2018-12-06T16:12:01.528Z,13.10
2018-12-06T16:14:30.391Z,13.20
2018-12-06T16:16:58.804Z,13.20
2018-12-06T16:19:27.222Z,13.20
2018-12-06T16:21:55.639Z,13.10
2018-12-06T16:24:24.138Z,13.20
2018-12-06T16:26:52.519Z,13.20
2018-12-06T16:29:20.985Z,13.10
2018-12-06T16:31:49.621Z,13.10
2018-12-06T16:34:18.026Z,13.10
2018-12-06T16:36:46.439Z,13.10
2018-12-06T16:39:15.369Z,13.10
2018-12-06T16:41:43.729Z,13.10
2018-12-06T16:44:12.265Z,13.10
2018-12-06T16:46:40.674Z,13.10
2018-12-06T16:49:10.292Z,13.10
2018-12-06T16:51:39.717Z,13.10
2018-12-06T16:54:08.154Z,13.10
2018-12-06T16:56:36.554Z,13.10
2018-12-06T16:59:05.001Z,13.10
2018-12-06T17:01:33.515Z,13.10
2018-12-06T17:04:01.929Z,13.10
2018-12-06T17:06:30.328Z,13.10
2018-12-06T17:08:58.714Z,13.10
2018-12-06T17:11:27.388Z,13.10
2018-12-06T17:13:56.781Z,13.10
2018-12-06T17:16:25.413Z,13.10
2018-12-06T17:18:53.806Z,13.10
2018-12-06T17:21:22.463Z,13.10
2018-12-06T17:23:50.901Z,13.10
2018-12-06T17:26:19.442Z,13.10
2018-12-06T17:28:47.885Z,13.10
2018-12-06T17:31:16.603Z,13.10
2018-12-06T17:33:45.181Z,13.10
2018-12-06T17:36:13.875Z,13.10
2018-12-06T17:38:42.304Z,13.10
2018-12-06T17:41:10.714Z,13.10
2018-12-06T17:43:39.327Z,13.10
2018-12-06T17:46:08.102Z,13.10
2018-12-06T17:48:36.513Z,13.10
2018-12-06T17:51:05.154Z,13.10
2018-12-06T17:53:33.852Z,13.10
2018-12-06T17:56:02.544Z,13.10
2018-12-06T17:58:31.265Z,13.10
2018-12-06T18:01:00.138Z,13.10
2018-12-06T18:03:28.604Z,13.10
2018-12-06T18:05:57.051Z,13.10
2018-12-06T18:08:25.432Z,13.10
2018-12-06T18:10:54.059Z,13.10
2018-12-06T18:13:23.062Z,13.10
2018-12-06T18:15:52.113Z,13.10
2018-12-06T18:18:20.549Z,13.10
2018-12-06T18:20:48.994Z,13.10
2018-12-06T18:23:17.394Z,13.10
2018-12-06T18:25:45.808Z,13.10
2018-12-06T18:28:14.518Z,13.10
2018-12-06T18:30:43.209Z,13.20
2018-12-06T18:33:13.052Z,13.20
2018-12-06T18:35:41.511Z,13.10
2018-12-06T18:38:09.904Z,13.10
2018-12-06T18:40:38.297Z,13.10
2018-12-06T18:43:06.732Z,13.20
2018-12-06T18:45:35.130Z,13.10
2018-12-06T18:48:03.672Z,13.20
2018-12-06T18:50:32.091Z,13.10
2018-12-06T18:53:00.499Z,13.10
2018-12-06T18:55:28.905Z,13.20
2018-12-06T18:57:57.348Z,13.20
2018-12-06T19:00:25.930Z,13.20
2018-12-06T19:02:54.347Z,13.20
2018-12-06T19:05:22.780Z,13.20
2018-12-06T19:07:51.345Z,13.20
2018-12-06T19:10:19.726Z,13.20
2018-12-06T19:12:48.646Z,13.20
2018-12-06T19:15:17.055Z,13.20
2018-12-06T19:17:45.470Z,13.20
2018-12-06T19:20:13.875Z,13.20
2018-12-06T19:22:42.594Z,13.20
2018-12-06T19:25:11.265Z,13.20
2018-12-06T19:27:39.675Z,13.20
2018-12-06T19:30:09.483Z,13.20
2018-12-06T19:32:38.046Z,13.20
2018-12-06T19:35:07.280Z,13.20
2018-12-06T19:37:35.969Z,13.20
2018-12-06T19:40:04.851Z,13.20
2018-12-06T19:42:38.641Z,13.20
2018-12-06T19:45:04.398Z,13.30
2018-12-06T19:47:33.133Z,13.20
2018-12-06T19:50:01.595Z,13.20
2018-12-06T19:52:30.185Z,13.20
2018-12-06T19:54:58.786Z,13.20
2018-12-06T19:57:27.362Z,13.20
2018-12-06T19:59:55.744Z,13.20
2018-12-06T20:02:24.644Z,13.30
2018-12-06T20:04:53.102Z,13.30
2018-12-06T20:07:21.727Z,13.20
2018-12-06T20:09:51.757Z,13.30
2018-12-06T20:12:21.062Z,13.30
2018-12-06T20:14:49.470Z,13.20
2018-12-06T20:17:17.886Z,13.30
2018-12-06T20:19:46.316Z,13.20
2018-12-06T20:22:14.706Z,13.20
2018-12-06T20:24:43.529Z,13.20
2018-12-06T20:27:11.960Z,13.20
2018-12-06T20:29:40.366Z,13.20
2018-12-06T20:32:14.663Z,13.20
2018-12-06T20:34:39.433Z,13.20
2018-12-06T20:37:08.118Z,13.20
2018-12-06T20:39:37.079Z,13.10
2018-12-06T20:42:05.524Z,13.10
2018-12-06T20:44:34.346Z,13.00
2018-12-06T20:47:02.762Z,13.00
2018-12-06T20:49:31.529Z,12.90
2018-12-06T20:51:59.976Z,12.90
2018-12-06T20:54:28.388Z,12.90
2018-12-06T20:56:56.794Z,12.90
2018-12-06T20:59:25.182Z,12.90
2018-12-06T21:01:54.887Z,12.90
2018-12-06T21:04:23.460Z,13.00
2018-12-06T21:06:51.859Z,12.90
2018-12-06T21:09:20.414Z,13.00
2018-12-06T21:11:48.837Z,13.00
2018-12-06T21:14:22.138Z,13.00
2018-12-06T21:16:47.868Z,13.00
2018-12-06T21:19:16.428Z,12.90
2018-12-06T21:21:45.062Z,12.80
2018-12-06T21:24:13.481Z,12.70
2018-12-06T21:26:41.888Z,12.70
2018-12-06T21:29:10.575Z,12.70
2018-12-06T21:31:39.011Z,12.60
2018-12-06T21:34:07.601Z,12.70
2018-12-06T21:36:35.980Z,12.70
2018-12-06T21:39:07.362Z,12.70
2018-12-06T21:41:36.137Z,12.80
2018-12-06T21:44:04.778Z,12.80
2018-12-06T21:46:33.195Z,12.90
2018-12-06T21:49:01.619Z,12.90
2018-12-06T21:51:30.223Z,13.00
2018-12-06T21:53:58.737Z,12.90
2018-12-06T21:56:27.217Z,12.90
2018-12-06T21:58:55.601Z,13.00
2018-12-06T22:01:23.987Z,13.00
2018-12-06T22:03:52.506Z,13.00
2018-12-06T22:06:20.929Z,13.00
2018-12-06T22:08:49.570Z,13.00
2018-12-06T22:11:17.964Z,13.00
2018-12-06T22:13:46.325Z,13.10
2018-12-06T22:16:14.984Z,13.10
2018-12-06T22:18:43.785Z,13.00
2018-12-06T22:21:12.149Z,13.00
2018-12-06T22:23:40.691Z,13.00
2018-12-06T22:26:09.383Z,13.00
2018-12-06T22:28:37.758Z,13.00
2018-12-06T22:31:06.455Z,13.10
2018-12-06T22:33:34.878Z,13.00
2018-12-06T22:36:03.522Z,13.00
2018-12-06T22:38:34.315Z,13.00
2018-12-06T22:41:02.465Z,13.00
2018-12-06T22:43:31.133Z,13.00
2018-12-06T22:46:01.120Z,13.10
2018-12-06T22:48:29.742Z,13.10
2018-12-06T22:50:58.359Z,13.00
2018-12-06T22:53:26.949Z,13.10
2018-12-06T22:55:55.514Z,13.00
2018-12-06T22:58:23.938Z,13.00
2018-12-06T23:00:54.992Z,13.00
2018-12-06T23:03:23.849Z,13.00
2018-12-06T23:05:53.635Z,12.90
2018-12-06T23:08:22.437Z,12.80
2018-12-06T23:10:50.980Z,12.80
2018-12-06T23:13:19.382Z,12.80
2018-12-06T23:15:48.014Z,12.70
2018-12-06T23:18:16.418Z,12.70
2018-12-06T23:20:44.969Z,12.70
2018-12-06T23:23:13.376Z,12.70
2018-12-06T23:25:41.813Z,12.70
2018-12-06T23:28:10.190Z,12.60
2018-12-06T23:30:38.708Z,12.60
2018-12-06T23:33:07.336Z,12.60
2018-12-06T23:35:35.715Z,12.60
2018-12-06T23:38:04.091Z,12.60
2018-12-06T23:40:32.583Z,12.50
2018-12-06T23:43:01.029Z,12.50
2018-12-06T23:45:29.518Z,12.40
2018-12-06T23:47:57.989Z,12.30
2018-12-06T23:50:26.391Z,12.30
2018-12-06T23:52:54.768Z,12.30
2018-12-06T23:55:23.220Z,12.30
2018-12-06T23:57:51.603Z,12.20
